Jiggiga, Ethiopia
Current Conditions -  °F | °C
As of 8:55 AM on Wednesday 22 Oct 2014 (Local Time) from KQRH Reporting Station
Few Clouds Few Clouds  
Wind Chill: 89°   Ceiling: Unl
Heat Index: 94°   Visibility: 6mi
Dew Point: 70°   Wind: 6mph
Humidity: 53%   Direction: 120°ESE
Pressure: 30.03"   Gusts: NA
Location:  9.33°N, 42.8°E
Report Text: KQRH 220555Z AUTO 12005KT 9999 FEW030 32/21 A3003 RMK AO2 SLP167 T03160210 10293 20272 51017
Loading
Personal Weather Stations






























Interactive Weather Map
Tropical Storm Tracking
New forecast layout! Learn more

10-Day Weather Forecast

Advertisements
Track Severe Weather on mobile